createdAt,value
2023-04-07T00:04:28.804Z,39.92
2023-04-07T00:11:30.890Z,39.45
2023-04-07T00:18:32.410Z,39.05
2023-04-07T00:25:33.965Z,39.49
2023-04-07T00:32:36.676Z,38.77
2023-04-07T00:39:38.368Z,37.79
2023-04-07T00:46:39.992Z,37.38
2023-04-07T00:53:41.567Z,37.49
2023-04-07T01:00:49.704Z,37.52
2023-04-07T01:08:24.691Z,37.42
2023-04-07T01:15:28.071Z,36.97
2023-04-07T01:22:53.199Z,37.20
2023-04-07T01:29:54.842Z,37.64
2023-04-07T01:36:56.588Z,37.76
2023-04-07T01:43:58.163Z,38.00
2023-04-07T01:50:59.707Z,38.04
2023-04-07T01:58:06.247Z,38.42
2023-04-07T02:05:09.694Z,38.62
2023-04-07T02:12:12.948Z,38.77
2023-04-07T02:19:19.666Z,38.96
2023-04-07T02:26:21.392Z,39.58
2023-04-07T02:33:23.813Z,39.88
2023-04-07T02:40:25.782Z,39.65
2023-04-07T02:47:28.449Z,40.11
2023-04-07T02:54:30.006Z,40.30
2023-04-07T03:01:32.160Z,40.49
2023-04-07T03:08:34.347Z,40.84
2023-04-07T03:15:35.976Z,40.65
2023-04-07T03:22:37.689Z,40.70
2023-04-07T03:29:43.304Z,40.84
2023-04-07T03:36:48.048Z,41.21
2023-04-07T03:43:50.960Z,41.52
2023-04-07T03:50:55.876Z,41.32
2023-04-07T03:57:57.621Z,42.03
2023-04-07T04:05:02.955Z,42.12
2023-04-07T04:12:04.720Z,42.47
2023-04-07T04:19:08.095Z,42.62
2023-04-07T04:26:10.459Z,43.18
2023-04-07T04:33:13.708Z,43.33
2023-04-07T04:40:29.197Z,43.89
2023-04-07T04:47:31.852Z,44.12
2023-04-07T04:54:35.178Z,44.74
2023-04-07T05:01:37.292Z,44.94
2023-04-07T05:08:43.339Z,45.14
2023-04-07T05:15:45.612Z,45.58
2023-04-07T05:22:48.767Z,45.79
2023-04-07T05:29:52.446Z,46.25
2023-04-07T05:37:00.263Z,46.29
2023-04-07T05:44:01.996Z,46.24
2023-04-07T05:51:05.867Z,46.30
2023-04-07T05:58:07.489Z,46.37
2023-04-07T06:05:10.569Z,46.81
2023-04-07T06:12:16.855Z,47.01
2023-04-07T06:19:18.771Z,46.73
2023-04-07T06:26:21.597Z,47.01
2023-04-07T06:33:25.720Z,47.10
2023-04-07T06:40:27.475Z,47.11
2023-04-07T06:47:29.346Z,47.38
2023-04-07T06:54:31.001Z,47.96
2023-04-07T07:01:35.365Z,48.62
2023-04-07T07:08:37.050Z,49.02
2023-04-07T07:15:38.706Z,48.70
2023-04-07T07:22:41.353Z,48.54
2023-04-07T07:29:43.231Z,47.19
2023-04-07T07:36:44.790Z,46.45
2023-04-07T07:43:46.773Z,45.78
2023-04-07T07:50:49.097Z,45.09
2023-04-07T07:57:50.990Z,43.99
2023-04-07T08:04:52.728Z,43.79
2023-04-07T08:11:54.529Z,42.63
2023-04-07T08:18:56.120Z,41.43
2023-04-07T08:25:57.761Z,40.71
2023-04-07T08:32:59.435Z,40.62
2023-04-07T08:40:01.571Z,39.71
2023-04-07T08:47:03.243Z,39.02
2023-04-07T08:54:11.737Z,37.20
2023-04-07T09:01:13.633Z,38.47
2023-04-07T09:08:15.285Z,36.43
2023-04-07T09:15:16.942Z,36.78
2023-04-07T09:22:34.631Z,36.75
2023-04-07T09:29:36.461Z,37.63
2023-04-07T09:36:43.992Z,39.47
2023-04-07T09:43:46.483Z,39.04
2023-04-07T09:50:51.924Z,39.30
2023-04-07T09:57:55.495Z,39.37
2023-04-07T10:04:57.076Z,38.78
2023-04-07T10:11:59.672Z,38.92
2023-04-07T10:19:01.537Z,38.53
2023-04-07T10:26:03.437Z,40.33
2023-04-07T10:33:05.130Z,40.20
2023-04-07T10:40:19.030Z,40.30
2023-04-07T10:47:20.740Z,41.15
2023-04-07T10:54:23.359Z,43.42
2023-04-07T11:01:25.015Z,46.12
2023-04-07T11:08:33.747Z,49.07
2023-04-07T11:15:37.200Z,51.39
2023-04-07T11:22:41.261Z,53.98
2023-04-07T11:29:43.508Z,54.94
2023-04-07T11:36:45.180Z,57.59
2023-04-07T11:43:46.916Z,58.50
2023-04-07T11:50:48.663Z,58.87
2023-04-07T11:57:51.795Z,60.29
2023-04-07T12:04:57.467Z,61.79
2023-04-07T12:11:59.390Z,60.92
2023-04-07T12:19:00.965Z,61.96
2023-04-07T12:26:02.747Z,62.64
2023-04-07T12:33:04.395Z,64.41
2023-04-07T12:40:06.677Z,62.99
2023-04-07T12:47:09.324Z,62.52
2023-04-07T12:54:10.945Z,63.70
2023-04-07T13:01:12.660Z,64.81
2023-04-07T13:08:14.286Z,63.04
2023-04-07T13:15:16.058Z,63.26
2023-04-07T13:22:21.259Z,62.24
2023-04-07T13:29:23.810Z,64.07
2023-04-07T13:36:27.319Z,64.17
2023-04-07T13:43:28.880Z,63.48
2023-04-07T13:50:30.943Z,62.23
2023-04-07T13:57:32.449Z,64.96
2023-04-07T14:04:34.142Z,64.15
2023-04-07T14:11:36.034Z,64.91
2023-04-07T14:18:37.575Z,65.90
2023-04-07T14:25:39.154Z,64.21
2023-04-07T14:32:40.817Z,64.94
2023-04-07T14:39:48.530Z,65.66
2023-04-07T14:46:57.416Z,65.33
2023-04-07T14:53:59.039Z,65.41
2023-04-07T15:01:00.582Z,65.39
2023-04-07T15:08:02.193Z,66.13
2023-04-07T15:15:03.963Z,68.29
2023-04-07T15:22:05.865Z,67.54
2023-04-07T15:29:07.404Z,66.75
2023-04-07T15:36:09.176Z,67.50
2023-04-07T15:43:11.368Z,68.30
2023-04-07T15:50:13.170Z,68.57
2023-04-07T15:57:16.665Z,69.45
2023-04-07T16:04:19.283Z,69.65
2023-04-07T16:11:21.178Z,70.15
2023-04-07T16:18:22.840Z,70.38
2023-04-07T16:25:24.451Z,70.29
2023-04-07T16:32:27.525Z,71.80
2023-04-07T16:39:29.677Z,71.98
2023-04-07T16:46:31.552Z,72.11
2023-04-07T16:53:33.154Z,73.43
2023-04-07T17:00:34.698Z,73.41
2023-04-07T17:07:36.206Z,73.35
2023-04-07T17:14:37.770Z,73.40
2023-04-07T17:21:39.303Z,74.67
2023-04-07T17:28:40.893Z,74.15
2023-04-07T17:35:42.494Z,74.17
2023-04-07T17:42:44.593Z,75.02
2023-04-07T17:49:48.647Z,74.97
2023-04-07T17:56:50.271Z,74.76
2023-04-07T18:03:52.971Z,76.06
2023-04-07T18:10:54.826Z,76.28
2023-04-07T18:17:56.934Z,75.02
2023-04-07T18:25:00.234Z,75.45
2023-04-07T18:32:01.845Z,75.36
2023-04-07T18:39:04.728Z,75.24
2023-04-07T18:46:07.102Z,76.07
2023-04-07T18:53:08.750Z,77.03
2023-04-07T19:00:10.517Z,76.35
2023-04-07T19:07:12.241Z,75.47
2023-04-07T19:14:13.983Z,75.90
2023-04-07T19:21:15.650Z,76.90
2023-04-07T19:28:17.295Z,78.10
2023-04-07T19:35:18.934Z,80.22
2023-04-07T19:42:20.544Z,77.65
2023-04-07T19:49:22.202Z,78.89
2023-04-07T19:56:25.020Z,80.00
2023-04-07T20:03:26.779Z,76.72
2023-04-07T20:10:28.485Z,78.35
2023-04-07T20:17:32.426Z,78.50
2023-04-07T20:24:37.311Z,78.23
2023-04-07T20:31:38.986Z,76.45
2023-04-07T20:38:43.735Z,77.32
2023-04-07T20:45:47.356Z,77.02
2023-04-07T20:52:49.127Z,77.97
2023-04-07T20:59:50.907Z,77.51
2023-04-07T21:06:52.469Z,77.55
2023-04-07T21:13:54.139Z,78.36
2023-04-07T21:20:59.649Z,77.45
2023-04-07T21:28:01.285Z,79.72
2023-04-07T21:35:03.789Z,77.87
2023-04-07T21:42:05.418Z,79.24
2023-04-07T21:49:07.212Z,79.93
2023-04-07T21:56:09.372Z,79.37
2023-04-07T22:03:11.141Z,78.66
2023-04-07T22:10:12.976Z,79.75
2023-04-07T22:17:14.607Z,80.02
2023-04-07T22:24:16.370Z,79.74
2023-04-07T22:31:17.988Z,79.06
2023-04-07T22:38:19.595Z,79.50
2023-04-07T22:45:21.226Z,81.93
2023-04-07T22:52:23.161Z,81.76
2023-04-07T22:59:24.775Z,81.08
2023-04-07T23:06:28.526Z,82.86
2023-04-07T23:13:30.254Z,82.88
2023-04-07T23:20:31.846Z,81.48
2023-04-07T23:27:33.430Z,80.91
2023-04-07T23:34:35.206Z,79.28
2023-04-07T23:41:36.904Z,81.76
2023-04-07T23:48:39.267Z,81.74
2023-04-07T23:55:41.490Z,83.06
